Portada
METAR-TAF:

METAR-TAF

Aeroports :

Georgetown, Illa de l'Ascensió

latitud: 07-58S, longitud: 014-24W, altitud: 86 m

Observació

L'informe es va fer fa 29 minuts, a les 08:50 UTC
Vent 13 kt del Sud-Est
Temperatura 25°C
Humitat 74%
Pressió 1016 hPa
Visibilitat 10 km o més
Escasses núvols a una alçada de 1500 ft
Cel ennuvolat a una alçada de 4600 ft

METAR: FHAW 020850Z 14013KT 9999 FEW015 BKN046 25/20 Q1016 NOSIG RMK BLU BLU

Hora: 09:19 (09:19 UTC)

Pronòstic

L'informe es va fer fa 1 hora i 49 minuts, a les 07:30 UTC
Pronòstic vàlid del 02 a les 09 UTC al 03 a les 03 UTC
Vent 15 kt del Sud/Sud-Est
Visibilitat 10 km o més
Escasses núvols a una alçada de 1400 ft
Cel ennuvolat a una alçada de 4000 ft
Probabilitat 30% :
Temporalment
l' 03 a les 00 UTC al 03 a les 03 UTC
Visibilitat: 7000 m
Núvols disperses a una alçada de 1200 ft
xàfecs de pluja

TAF: FHAW 020730Z 0209/0303 15015KT 9999 FEW014 BKN040 PROB30 TEMPO 0300/0303 7000 -SHRA SCT012

Observacions i pronòstics meteorològics de més de 4000 aeroports (METAR i TAF).

Les estacions disponibles són els punts grocs i vermells al mapa.

Posi el ratolí al punt desitjat per veure el nom de l'estació.

Feu clic per veure les observacions i els pronòstics meteorològics.

Per canviar el mapa: feu clic els botons verds amb una creu de color negre per apropar; al botó verd amb un guió per allunyar la imatge; o en les fletxes verdes per a mapes adjacents.


METAR-TAF: